Terminal Aerodrome Forecast
Issued by NWS

Home | Current Version | Previous Version | Text Only | Print | Product List | Glossary On
Versions: 1 2 3 4 5 6 7 8 9 10 11 12 13 14 15 16 17 18 19 20 21 22 23 24 25 26 27 28 29 30 31 32 33 34
000
FTUS43 KMQT 201126
TAFCMX
TAF
KCMX 201126Z 2012/2112 00000KT P6SM BKN035
     FM202300 13009KT 5SM -SN OVC040
     FM210000 13009KT 2SM -SN BR OVC015
     FM210200 12011KT 1SM -SN BR OVC004
     FM210800 18006KT 2SM BR OVC005
     FM211100 23008KT 3SM BR BKN006=

USA.gov is the U.S. government's official web portal to all federal, state and local government web resources and services.